Terminal Aerodrome Forecast
Issued by NWS Sioux Falls, SD

Home | Current Version | Previous Version | Graphics & Text | Print | Product List | Glossary On
Versions: 1 2 3 4 5 6 7 8 9 10 11 12 13
000
FTUS43 KFSD 051136
TAFHON
TAF
KHON 051136Z 0512/0612 11007KT P6SM BKN250
     FM051500 13012G19KT P6SM SCT050 OVC250
     FM051800 14014G20KT P6SM OVC050
      TEMPO 0522/0601 5SM -SHRA
     FM060200 12011KT P6SM OVC040
     FM060700 13013KT 4SM -SHRA BR OVC025=

USA.gov is the U.S. government's official web portal to all federal, state and local government web resources and services.